Time;durP1;ratioP1;P1;durP2;ratioP2;P2;SDS_P1;SDS_P2;PMS_P1;PMS_P2;Temp;Humidity;BMP_temperature;BMP_pressure;BME280_temperature;BME280_humidity;BME280_pressure;Samples;Min_cycle;Max_cycle;Signal;HPM_P1;HPM_P2
2021/11/23 00:01:10;;;;;;;4.05;2.83;;;1.90;74.50;;;;;;5013602;28;20220;-78
2021/11/23 00:03:37;;;;;;;5.28;2.15;;;1.90;74.60;;;;;;5013671;28;20608;-78
2021/11/23 00:06:04;;;;;;;3.08;2.78;;;1.90;75.00;;;;;;5013889;28;20263;-78
2021/11/23 00:08:31;;;;;;;3.80;2.20;;;1.90;75.00;;;;;;5013863;28;20347;-79
2021/11/23 00:10:58;;;;;;;3.45;2.28;;;1.90;75.00;;;;;;5014075;28;20721;-77
2021/11/23 00:13:26;;;;;;;3.38;2.10;;;1.80;75.20;;;;;;5014381;28;20719;-78
2021/11/23 00:15:54;;;;;;;3.75;2.40;;;1.80;75.70;;;;;;5016227;28;20230;-77
2021/11/23 00:18:20;;;;;;;3.55;2.50;;;1.70;76.50;;;;;;5015911;28;20214;-77
2021/11/23 00:20:48;;;;;;;3.28;2.42;;;1.70;77.40;;;;;;5015466;28;20243;-78
2021/11/23 00:23:15;;;;;;;2.92;2.50;;;1.70;77.80;;;;;;5015670;28;20282;-78
2021/11/23 00:25:43;;;;;;;3.33;2.58;;;1.70;78.00;;;;;;5016533;28;20211;-78
2021/11/23 00:28:10;;;;;;;3.15;2.42;;;1.60;78.20;;;;;;5017236;28;20289;-78
2021/11/23 00:30:38;;;;;;;2.83;2.30;;;1.60;78.50;;;;;;5016609;28;20230;-78
2021/11/23 00:33:06;;;;;;;2.20;2.00;;;1.60;78.50;;;;;;5016214;28;20214;-78
2021/11/23 00:35:33;;;;;;;3.15;2.30;;;1.60;78.50;;;;;;5016782;28;20213;-78
2021/11/23 00:38:02;;;;;;;2.00;1.80;;;1.50;78.40;;;;;;5017439;28;20205;-78
2021/11/23 00:40:28;;;;;;;2.78;2.20;;;1.50;78.50;;;;;;5020177;28;20239;-79
2021/11/23 00:42:57;;;;;;;2.85;2.63;;;1.40;79.10;;;;;;5034713;28;20195;-77
2021/11/23 00:45:24;;;;;;;2.63;2.00;;;1.40;79.70;;;;;;5034488;28;20199;-79
2021/11/23 00:47:50;;;;;;;2.55;2.25;;;1.40;80.00;;;;;;5035376;28;20534;-79
2021/11/23 00:50:18;;;;;;;2.60;2.33;;;1.40;80.30;;;;;;4997104;28;1117100;-79
2021/11/23 00:52:45;;;;;;;3.25;2.30;;;1.30;80.40;;;;;;5035647;28;20184;-76
2021/11/23 00:55:13;;;;;;;2.65;2.45;;;1.30;80.70;;;;;;5027329;28;20212;-78
2021/11/23 00:57:40;;;;;;;5.28;2.50;;;1.30;81.70;;;;;;5026731;28;20215;-79
2021/11/23 01:00:09;;;;;;;2.92;2.20;;;1.20;82.30;;;;;;5020153;28;20227;-78
2021/11/23 01:02:37;;;;;;;4.40;2.42;;;1.20;82.40;;;;;;5017577;28;20218;-78
2021/11/23 01:05:05;;;;;;;2.10;1.80;;;1.20;82.40;;;;;;5014262;28;20302;-78
2021/11/23 01:07:33;;;;;;;2.40;2.03;;;1.10;82.40;;;;;;5012828;28;20255;-77
2021/11/23 01:10:00;;;;;;;3.38;2.42;;;1.10;83.20;;;;;;5012595;28;20548;-78
2021/11/23 01:12:28;;;;;;;2.78;2.42;;;1.10;83.10;;;;;;5012789;28;20223;-77
2021/11/23 01:14:55;;;;;;;2.38;2.10;;;1.10;83.20;;;;;;5011744;28;20613;-78
2021/11/23 01:17:22;;;;;;;2.63;2.42;;;1.10;83.00;;;;;;5013405;28;20303;-78
2021/11/23 01:19:49;;;;;;;4.93;2.25;;;1.10;83.40;;;;;;5015097;28;20205;-79
2021/11/23 01:22:16;;;;;;;4.53;2.00;;;1.10;83.80;;;;;;5014615;28;20237;-77
2021/11/23 01:24:44;;;;;;;2.60;2.22;;;1.00;83.70;;;;;;5013115;28;20215;-77
2021/11/23 01:27:11;;;;;;;3.38;2.72;;;1.00;84.40;;;;;;5013453;28;20222;-78
2021/11/23 01:29:38;;;;;;;4.82;2.80;;;1.00;84.80;;;;;;5012949;28;20553;-78
2021/11/23 01:32:06;;;;;;;3.58;3.25;;;1.00;85.70;;;;;;5013500;28;20699;-78
2021/11/23 01:34:32;;;;;;;4.22;3.00;;;0.90;85.50;;;;;;5013640;28;20231;-79
2021/11/23 01:36:59;;;;;;;3.65;2.80;;;0.90;86.20;;;;;;5014281;28;20218;-78
2021/11/23 01:39:26;;;;;;;3.67;2.78;;;0.90;86.10;;;;;;5026613;28;20401;-76
2021/11/23 01:41:54;;;;;;;2.42;2.22;;;0.80;86.50;;;;;;5025280;28;20389;-78
2021/11/23 01:44:21;;;;;;;4.15;2.70;;;0.80;87.40;;;;;;5016200;28;20616;-78
2021/11/23 01:46:49;;;;;;;2.85;2.45;;;0.90;87.40;;;;;;5012803;28;20215;-78
2021/11/23 01:49:16;;;;;;;3.10;2.70;;;0.80;87.20;;;;;;5015067;28;20230;-77
2021/11/23 01:51:44;;;;;;;4.18;2.85;;;0.80;87.80;;;;;;5014760;28;20240;-77
2021/11/23 01:54:11;;;;;;;3.08;2.78;;;0.80;88.50;;;;;;5012168;28;20212;-78
2021/11/23 01:56:38;;;;;;;4.82;2.90;;;0.80;88.70;;;;;;5012226;28;20207;-78
2021/11/23 01:59:07;;;;;;;3.30;2.75;;;0.70;89.90;;;;;;5012438;28;20206;-78
2021/11/23 02:01:34;;;;;;;3.20;2.90;;;0.70;90.00;;;;;;5013547;28;20224;-77
2021/11/23 02:04:01;;;;;;;4.35;3.17;;;0.70;90.00;;;;;;5024008;28;20247;-78
2021/11/23 02:06:27;;;;;;;4.75;2.83;;;0.60;89.90;;;;;;5014191;28;20207;-78
2021/11/23 02:08:54;;;;;;;4.10;3.05;;;0.60;90.40;;;;;;5016375;28;20233;-78
2021/11/23 02:11:21;;;;;;;3.58;3.08;;;0.70;90.40;;;;;;5016551;28;20232;-77
2021/11/23 02:13:48;;;;;;;4.88;3.33;;;0.70;90.50;;;;;;5016645;28;20203;-78
2021/11/23 02:16:16;;;;;;;2.97;2.67;;;0.60;90.30;;;;;;5021549;28;20501;-77
2021/11/23 02:18:43;;;;;;;3.97;2.63;;;0.60;90.40;;;;;;5018303;28;20291;-78
2021/11/23 02:21:11;;;;;;;4.25;3.00;;;0.70;90.50;;;;;;5017481;28;20224;-77
2021/11/23 02:23:38;;;;;;;4.00;3.30;;;0.70;90.50;;;;;;5016271;28;20254;-77
2021/11/23 02:26:05;;;;;;;6.35;2.90;;;0.60;90.70;;;;;;5016246;28;20648;-78
2021/11/23 02:28:32;;;;;;;3.45;3.15;;;0.60;90.60;;;;;;5016666;28;20238;-78
2021/11/23 02:31:00;;;;;;;5.88;3.50;;;0.60;90.90;;;;;;5016391;28;20228;-77
2021/11/23 02:33:30;;;;;;;5.97;3.30;;;0.60;90.90;;;;;;5016980;28;20231;-77
2021/11/23 02:36:00;;;;;;;4.82;3.83;;;0.50;91.00;;;;;;5017038;28;20223;-77
2021/11/23 02:38:29;;;;;;;3.85;3.20;;;0.60;91.30;;;;;;5016740;28;20273;-77
2021/11/23 02:40:56;;;;;;;2.80;2.60;;;0.50;91.30;;;;;;5016540;28;20242;-77
2021/11/23 02:43:23;;;;;;;3.50;2.72;;;0.40;91.30;;;;;;5016110;28;20222;-79
2021/11/23 02:46:00;;;;;;;;;;;;;;;;;;;;;
2021/11/23 02:48:38;;;;;;;5.18;3.45;;;0.30;91.60;;;;;;4936001;29;20266;-77
2021/11/23 02:51:08;;;;;;;5.57;3.50;;;0.20;91.90;;;;;;4935528;29;20245;-77
2021/11/23 02:53:36;;;;;;;4.47;3.30;;;0.20;92.30;;;;;;4935568;29;20206;-77
2021/11/23 02:56:04;;;;;;;4.95;3.40;;;0.20;92.70;;;;;;4935335;29;20218;-77
2021/11/23 02:58:33;;;;;;;4.28;3.22;;;0.30;92.90;;;;;;4935164;29;20210;-77
2021/11/23 03:01:01;;;;;;;5.03;3.47;;;0.20;92.80;;;;;;4934826;29;20276;-77
2021/11/23 03:03:27;;;;;;;5.20;3.30;;;0.20;92.90;;;;;;4935517;29;20225;-77
2021/11/23 03:05:56;;;;;;;3.70;3.10;;;0.20;93.30;;;;;;4957005;28;20357;-77
2021/11/23 03:08:22;;;;;;;3.15;2.80;;;0.20;93.30;;;;;;5015041;28;20409;-78
2021/11/23 03:10:51;;;;;;;8.60;4.15;;;0.30;93.40;;;;;;5014805;28;20238;-78
2021/11/23 03:13:18;;;;;;;4.13;3.72;;;0.20;93.30;;;;;;5015222;28;20212;-78
2021/11/23 03:15:45;;;;;;;5.75;3.80;;;0.20;93.30;;;;;;5014765;28;20207;-78
2021/11/23 03:18:11;;;;;;;5.78;4.38;;;0.20;93.30;;;;;;5014895;28;20208;-77
2021/11/23 03:20:39;;;;;;;4.30;3.63;;;0.20;93.30;;;;;;5014940;28;20231;-78
2021/11/23 03:23:07;;;;;;;10.45;3.65;;;0.10;93.30;;;;;;5014850;28;20215;-77
2021/11/23 03:25:34;;;;;;;10.60;4.43;;;0.10;93.70;;;;;;5015294;28;20738;-77
2021/11/23 03:28:02;;;;;;;6.00;3.80;;;0.00;94.10;;;;;;5014551;28;20652;-77
2021/11/23 03:30:31;;;;;;;5.05;4.25;;;0.00;94.20;;;;;;5014552;28;20228;-77
2021/11/23 03:33:00;;;;;;;4.47;4.05;;;0.00;94.90;;;;;;5017746;28;20230;-78
2021/11/23 03:35:29;;;;;;;6.00;4.60;;;-0.10;95.00;;;;;;5021038;28;20219;-77
2021/11/23 03:37:56;;;;;;;5.78;4.38;;;-0.10;95.40;;;;;;5014644;28;20216;-77
2021/11/23 03:40:25;;;;;;;9.57;3.72;;;-0.10;95.50;;;;;;5014691;28;20228;-77
2021/11/23 03:42:52;;;;;;;6.50;3.90;;;-0.10;95.80;;;;;;5020463;28;20211;-77
2021/11/23 03:45:21;;;;;;;6.22;4.22;;;-0.10;95.80;;;;;;5016964;28;20238;-78
2021/11/23 03:47:49;;;;;;;4.07;3.40;;;-0.10;96.20;;;;;;5016136;28;20692;-77
2021/11/23 03:50:17;;;;;;;7.38;4.90;;;-0.20;96.20;;;;;;5019106;28;20232;-78
2021/11/23 03:52:44;;;;;;;4.75;3.95;;;-0.20;96.60;;;;;;5022968;28;20220;-77
2021/11/23 03:55:14;;;;;;;7.63;4.05;;;-0.10;96.70;;;;;;5017856;28;20605;-77
2021/11/23 03:57:42;;;;;;;4.47;3.88;;;-0.20;96.60;;;;;;5018222;28;20239;-78
2021/11/23 04:00:10;;;;;;;5.93;4.10;;;-0.30;96.50;;;;;;5017880;28;20238;-78
2021/11/23 04:02:39;;;;;;;5.55;4.13;;;-0.30;96.60;;;;;;5018838;28;20212;-77
2021/11/23 04:05:07;;;;;;;6.80;3.95;;;-0.30;97.00;;;;;;5017365;28;20218;-78
2021/11/23 04:07:36;;;;;;;5.47;3.60;;;-0.40;97.00;;;;;;5017467;28;20208;-77
2021/11/23 04:10:04;;;;;;;4.93;4.43;;;-0.40;97.30;;;;;;5016826;28;20232;-77
2021/11/23 04:12:31;;;;;;;5.60;4.50;;;-0.40;97.90;;;;;;5016380;28;20271;-77
2021/11/23 04:14:57;;;;;;;5.68;4.18;;;-0.30;98.20;;;;;;5017184;28;20241;-77
2021/11/23 04:17:24;;;;;;;9.10;4.32;;;-0.30;97.80;;;;;;5016528;28;20212;-77
2021/11/23 04:19:52;;;;;;;6.13;4.15;;;-0.40;98.10;;;;;;5016348;28;20337;-78
2021/11/23 04:22:19;;;;;;;6.45;4.00;;;-0.30;98.30;;;;;;5016590;28;20283;-77
2021/11/23 04:24:46;;;;;;;6.20;4.20;;;-0.30;98.30;;;;;;5017225;28;20222;-77
2021/11/23 04:27:13;;;;;;;6.38;4.70;;;-0.30;98.20;;;;;;5021222;28;20208;-78
2021/11/23 04:29:39;;;;;;;5.05;4.15;;;-0.30;98.30;;;;;;5021108;28;20228;-78
2021/11/23 04:32:07;;;;;;;6.47;5.00;;;-0.30;98.30;;;;;;5016231;28;20207;-78
2021/11/23 04:34:34;;;;;;;6.32;4.10;;;-0.30;98.30;;;;;;5022782;28;20200;-77
2021/11/23 04:37:02;;;;;;;4.45;4.00;;;-0.30;98.30;;;;;;5022229;28;20192;-79
2021/11/23 04:39:29;;;;;;;6.63;4.40;;;-0.30;98.30;;;;;;5033934;28;20222;-78
2021/11/23 04:41:55;;;;;;;5.35;4.40;;;-0.30;98.30;;;;;;5029392;28;20230;-78
2021/11/23 04:44:22;;;;;;;7.80;5.00;;;-0.30;98.40;;;;;;5028220;28;20216;-77
2021/11/23 04:46:49;;;;;;;5.88;4.28;;;-0.30;98.30;;;;;;5035452;28;20196;-78
2021/11/23 04:49:16;;;;;;;5.35;4.25;;;-0.30;98.60;;;;;;5035161;28;20296;-79
2021/11/23 04:51:43;;;;;;;5.88;4.63;;;-0.30;98.30;;;;;;5033882;28;20223;-78
2021/11/23 04:54:11;;;;;;;9.75;4.55;;;-0.30;98.30;;;;;;5030933;28;20212;-78
2021/11/23 04:56:38;;;;;;;5.15;4.50;;;-0.30;98.40;;;;;;5013838;28;20563;-77
2021/11/23 04:59:05;;;;;;;5.97;4.15;;;-0.30;98.70;;;;;;5013736;28;20208;-77
2021/11/23 05:01:32;;;;;;;5.72;4.03;;;-0.30;98.70;;;;;;5013455;28;20327;-77
2021/11/23 05:03:59;;;;;;;6.65;4.80;;;-0.30;98.60;;;;;;5013370;28;20214;-77
2021/11/23 05:06:25;;;;;;;5.15;4.45;;;-0.30;98.40;;;;;;5012906;28;20319;-77
2021/11/23 05:08:52;;;;;;;6.10;4.57;;;-0.40;98.30;;;;;;5012852;28;20231;-76
2021/11/23 05:11:21;;;;;;;7.82;4.50;;;-0.40;98.40;;;;;;5012544;28;20227;-79
2021/11/23 05:13:48;;;;;;;5.85;4.63;;;-0.30;98.40;;;;;;5012665;28;20573;-78
2021/11/23 05:16:15;;;;;;;6.03;4.60;;;-0.40;98.30;;;;;;5012504;28;20215;-77
2021/11/23 05:18:41;;;;;;;4.85;4.40;;;-0.40;98.30;;;;;;5012521;28;20207;-78
2021/11/23 05:21:08;;;;;;;6.65;5.10;;;-0.50;98.20;;;;;;5011841;28;20219;-77
2021/11/23 05:23:35;;;;;;;5.72;4.85;;;-0.50;98.40;;;;;;5013926;28;20208;-77
2021/11/23 05:26:02;;;;;;;6.20;4.85;;;-0.50;98.70;;;;;;5016469;28;20223;-77
2021/11/23 05:28:30;;;;;;;7.25;4.72;;;-0.50;98.80;;;;;;5011031;28;20207;-78
2021/11/23 05:30:57;;;;;;;9.15;5.50;;;-0.50;98.80;;;;;;5010490;28;20234;-78
2021/11/23 05:33:24;;;;;;;8.00;5.80;;;-0.40;98.70;;;;;;5012275;28;20207;-77
2021/11/23 05:35:51;;;;;;;7.95;5.50;;;-0.40;98.50;;;;;;5012818;28;20207;-77
2021/11/23 05:38:19;;;;;;;9.35;5.15;;;-0.40;98.30;;;;;;5011955;28;20668;-77
2021/11/23 05:40:46;;;;;;;7.40;5.22;;;-0.30;98.30;;;;;;5011863;28;20227;-77
2021/11/23 05:43:14;;;;;;;9.25;5.50;;;-0.30;97.90;;;;;;5011838;28;20212;-78
2021/11/23 05:45:42;;;;;;;8.68;5.93;;;-0.30;97.80;;;;;;5012446;28;20203;-78
2021/11/23 05:48:09;;;;;;;7.50;5.68;;;-0.30;97.50;;;;;;5011745;28;20222;-76
2021/11/23 05:50:36;;;;;;;5.60;4.30;;;-0.30;97.20;;;;;;5011899;28;20596;-77
2021/11/23 05:53:03;;;;;;;6.78;5.03;;;-0.30;97.20;;;;;;5013216;28;20208;-78
2021/11/23 05:55:33;;;;;;;6.75;5.35;;;-0.30;97.10;;;;;;5012993;28;20214;-76
2021/11/23 05:58:00;;;;;;;6.68;5.47;;;-0.30;97.10;;;;;;5014406;28;20212;-77
2021/11/23 06:00:27;;;;;;;7.57;5.45;;;-0.30;96.70;;;;;;5013114;28;20254;-77
2021/11/23 06:02:55;;;;;;;6.45;4.50;;;-0.30;96.60;;;;;;5014059;28;20212;-77
2021/11/23 06:05:22;;;;;;;6.57;5.10;;;-0.40;96.50;;;;;;5022378;28;20265;-77
2021/11/23 06:07:49;;;;;;;7.88;5.18;;;-0.40;96.60;;;;;;5026426;28;20223;-77
2021/11/23 06:10:16;;;;;;;5.50;4.90;;;-0.30;96.80;;;;;;5027940;28;20265;-76
2021/11/23 06:12:42;;;;;;;8.43;5.43;;;-0.40;96.50;;;;;;5028876;28;20207;-75
2021/11/23 06:15:10;;;;;;;6.55;5.30;;;-0.30;96.60;;;;;;5026443;28;20239;-77
2021/11/23 06:17:38;;;;;;;5.68;5.07;;;-0.30;96.50;;;;;;5026920;28;20212;-76
2021/11/23 06:20:08;;;;;;;5.97;4.95;;;-0.30;96.40;;;;;;5021333;28;20715;-77
2021/11/23 06:22:36;;;;;;;9.43;5.85;;;-0.30;96.20;;;;;;5014584;28;20310;-77
2021/11/23 06:25:05;;;;;;;7.82;5.82;;;-0.30;96.20;;;;;;5013752;28;20207;-76
2021/11/23 06:27:32;;;;;;;6.57;4.60;;;-0.30;96.10;;;;;;5020185;28;20216;-77
2021/11/23 06:30:00;;;;;;;9.25;5.75;;;-0.40;95.70;;;;;;5029425;28;20228;-76
2021/11/23 06:32:27;;;;;;;8.25;5.45;;;-0.40;95.70;;;;;;5030669;28;20218;-77
2021/11/23 06:34:54;;;;;;;8.25;5.80;;;-0.50;95.90;;;;;;5032877;28;20192;-76
2021/11/23 06:37:23;;;;;;;8.23;5.55;;;-0.50;96.20;;;;;;5029114;28;20208;-75
2021/11/23 06:39:50;;;;;;;7.93;5.53;;;-0.50;96.50;;;;;;5020404;28;20219;-76
2021/11/23 06:42:16;;;;;;;6.97;5.10;;;-0.50;96.50;;;;;;5017384;28;20567;-76
2021/11/23 06:44:43;;;;;;;8.73;5.68;;;-0.60;96.90;;;;;;5015155;28;20211;-77
2021/11/23 06:47:10;;;;;;;10.20;5.72;;;-0.60;97.00;;;;;;5023731;28;20204;-78
2021/11/23 06:49:37;;;;;;;10.18;6.05;;;-0.60;97.20;;;;;;5013342;28;20315;-76
2021/11/23 06:52:05;;;;;;;7.20;5.32;;;-0.60;97.60;;;;;;5012391;28;20242;-77
2021/11/23 06:54:33;;;;;;;8.95;6.05;;;-0.60;98.00;;;;;;5015544;28;20651;-77
2021/11/23 06:57:00;;;;;;;8.32;5.15;;;-0.70;98.10;;;;;;5015667;28;20676;-77
2021/11/23 06:59:27;;;;;;;5.50;4.70;;;-0.70;98.10;;;;;;5015241;28;20215;-78
2021/11/23 07:01:53;;;;;;;6.97;5.70;;;-0.70;98.30;;;;;;5015629;28;20231;-77
2021/11/23 07:04:20;;;;;;;11.27;5.80;;;-0.70;98.80;;;;;;5016029;28;20299;-77
2021/11/23 07:06:48;;;;;;;6.95;5.20;;;-0.60;99.90;;;;;;5014974;28;20705;-77
2021/11/23 07:09:15;;;;;;;9.07;6.38;;;-0.60;99.60;;;;;;5015401;28;20247;-77
2021/11/23 07:11:44;;;;;;;7.13;5.47;;;-0.70;99.60;;;;;;5014782;28;20238;-77
2021/11/23 07:14:12;;;;;;;12.88;6.55;;;-0.60;99.70;;;;;;5015516;28;20695;-79
2021/11/23 07:16:39;;;;;;;9.18;5.95;;;-0.60;99.80;;;;;;5015299;28;20207;-78
2021/11/23 07:19:06;;;;;;;16.75;7.25;;;-0.60;99.60;;;;;;5014898;28;20223;-78
2021/11/23 07:21:33;;;;;;;10.77;6.63;;;-0.60;99.60;;;;;;5014638;28;20763;-77
2021/11/23 07:24:00;;;;;;;10.20;5.82;;;-0.50;99.20;;;;;;5015827;28;20212;-77
2021/11/23 07:26:28;;;;;;;8.25;6.10;;;-0.50;98.90;;;;;;5015270;28;20575;-79
2021/11/23 07:28:57;;;;;;;7.32;5.95;;;-0.50;98.70;;;;;;5017812;28;20297;-77
2021/11/23 07:31:24;;;;;;;10.95;6.78;;;-0.50;98.30;;;;;;5015446;28;20235;-79
2021/11/23 07:33:52;;;;;;;8.70;5.82;;;-0.50;98.20;;;;;;5015165;28;20212;-77
2021/11/23 07:36:19;;;;;;;10.32;6.38;;;-0.50;98.20;;;;;;5014800;28;20212;-77
2021/11/23 07:38:46;;;;;;;9.52;6.45;;;-0.40;98.20;;;;;;5015704;28;20664;-78
2021/11/23 07:41:13;;;;;;;9.77;6.32;;;-0.40;98.10;;;;;;5014391;28;20228;-78
2021/11/23 07:43:40;;;;;;;11.60;6.57;;;-0.30;97.90;;;;;;5015044;28;20218;-78
2021/11/23 07:46:09;;;;;;;8.68;6.55;;;-0.30;97.40;;;;;;5016809;28;20212;-79
2021/11/23 07:48:37;;;;;;;12.55;6.72;;;-0.30;97.00;;;;;;5014882;28;20204;-78
2021/11/23 07:51:04;;;;;;;7.88;6.55;;;-0.20;96.60;;;;;;5015797;28;20238;-77
2021/11/23 07:53:30;;;;;;;9.02;6.63;;;-0.20;95.90;;;;;;5014529;28;20204;-77
2021/11/23 07:55:57;;;;;;;12.38;7.60;;;-0.10;95.00;;;;;;5015239;28;20238;-77
2021/11/23 07:58:24;;;;;;;8.32;6.45;;;-0.10;94.80;;;;;;5016669;28;20211;-78
2021/11/23 08:00:51;;;;;;;8.07;6.43;;;0.00;94.00;;;;;;5014453;28;20231;-78
2021/11/23 08:03:22;;;;;;;8.65;6.53;;;0.00;93.30;;;;;;5015120;28;20223;-78
2021/11/23 08:05:49;;;;;;;10.65;7.15;;;0.10;93.00;;;;;;5016129;28;20206;-78
2021/11/23 08:08:16;;;;;;;10.20;5.72;;;0.10;92.20;;;;;;5021229;28;20204;-78
2021/11/23 08:10:43;;;;;;;9.93;7.22;;;0.20;91.70;;;;;;5025191;28;20318;-77
2021/11/23 08:13:11;;;;;;;8.02;6.65;;;0.30;91.60;;;;;;5022434;28;20226;-78
2021/11/23 08:15:38;;;;;;;10.50;6.90;;;0.30;91.40;;;;;;5017198;28;20215;-76
2021/11/23 08:18:09;;;;;;;8.88;7.05;;;0.40;91.30;;;;;;5015129;28;20281;-77
2021/11/23 08:20:37;;;;;;;9.27;7.15;;;0.40;90.60;;;;;;5014586;28;20707;-78
2021/11/23 08:23:06;;;;;;;14.75;7.05;;;0.50;90.30;;;;;;5014641;28;20262;-78
2021/11/23 08:25:33;;;;;;;9.48;6.82;;;0.60;89.90;;;;;;5015140;28;20314;-78
2021/11/23 08:28:00;;;;;;;8.93;6.20;;;0.60;88.70;;;;;;5014888;28;20210;-76
2021/11/23 08:30:30;;;;;;;8.32;6.47;;;0.70;87.00;;;;;;5014954;28;20235;-77
2021/11/23 08:32:57;;;;;;;9.85;6.97;;;0.70;86.60;;;;;;5015893;28;20247;-77
2021/11/23 08:35:23;;;;;;;11.98;6.95;;;0.80;85.50;;;;;;5017529;28;20208;-78
2021/11/23 08:38:19;;;;;;;8.85;7.32;;;0.90;84.30;;;;;;5019693;28;20375;-80
2021/11/23 08:40:46;;;;;;;12.07;7.03;;;1.00;82.80;;;;;;5017858;28;20663;-77
2021/11/23 08:43:13;;;;;;;8.30;6.30;;;1.10;82.30;;;;;;5015054;28;20303;-78
2021/11/23 08:45:41;;;;;;;9.85;6.82;;;1.10;82.20;;;;;;5014506;28;20207;-78
2021/11/23 08:48:08;;;;;;;9.70;6.80;;;1.20;81.60;;;;;;5014056;28;20299;-78
2021/11/23 08:50:35;;;;;;;13.68;7.05;;;1.20;80.30;;;;;;5013391;28;20238;-77
2021/11/23 08:53:07;;;;;;;8.90;6.38;;;1.20;78.50;;;;;;5014206;28;20569;-78
2021/11/23 08:55:35;;;;;;;8.65;7.10;;;1.30;78.80;;;;;;5013611;28;20250;-76
2021/11/23 08:58:02;;;;;;;10.18;7.88;;;1.40;78.40;;;;;;5014087;28;20221;-76
2021/11/23 09:00:29;;;;;;;10.48;7.20;;;1.50;77.10;;;;;;5014012;28;20307;-78
2021/11/23 09:02:58;;;;;;;10.00;7.30;;;1.60;76.20;;;;;;5013424;28;20221;-78
2021/11/23 09:05:27;;;;;;;12.27;8.07;;;1.60;75.90;;;;;;5017039;28;20212;-78
2021/11/23 09:07:56;;;;;;;7.88;6.78;;;1.70;76.00;;;;;;5016934;28;20220;-77
2021/11/23 09:10:25;;;;;;;12.50;7.93;;;1.80;75.00;;;;;;5017562;28;20259;-78
2021/11/23 09:12:55;;;;;;;9.38;7.45;;;1.80;74.80;;;;;;5019114;28;20232;-77
2021/11/23 09:15:22;;;;;;;13.68;8.40;;;1.90;74.70;;;;;;5015786;28;20305;-77
2021/11/23 09:17:50;;;;;;;10.20;6.97;;;2.00;73.30;;;;;;5016138;28;20209;-79
2021/11/23 09:20:19;;;;;;;10.35;7.05;;;2.00;72.80;;;;;;5020697;28;20287;-78
2021/11/23 09:22:46;;;;;;;11.02;7.43;;;2.00;71.30;;;;;;5029195;28;20217;-77
2021/11/23 09:25:15;;;;;;;10.68;7.40;;;2.10;71.70;;;;;;5033185;28;20241;-77
2021/11/23 09:27:42;;;;;;;10.70;7.72;;;2.10;71.90;;;;;;5030837;28;20209;-77
2021/11/23 09:30:14;;;;;;;12.27;8.13;;;2.30;70.70;;;;;;5028371;28;20297;-76
2021/11/23 09:32:42;;;;;;;12.65;7.50;;;2.20;68.30;;;;;;5028603;28;20213;-77
2021/11/23 09:35:11;;;;;;;9.68;7.15;;;2.30;69.60;;;;;;5028627;28;20204;-77
2021/11/23 09:37:38;;;;;;;8.88;6.93;;;2.40;69.90;;;;;;5024906;28;20206;-77
2021/11/23 09:40:07;;;;;;;13.10;7.60;;;2.40;68.80;;;;;;5018527;28;20308;-78
2021/11/23 09:42:34;;;;;;;10.07;7.95;;;2.40;68.30;;;;;;5017389;28;20216;-77
2021/11/23 09:45:03;;;;;;;11.23;7.60;;;2.50;67.50;;;;;;5027322;28;20223;-78
2021/11/23 09:47:32;;;;;;;11.50;8.02;;;2.50;67.30;;;;;;5026847;28;20218;-76
2021/11/23 09:49:59;;;;;;;11.38;7.70;;;2.60;67.70;;;;;;5034764;28;20206;-75
2021/11/23 09:52:26;;;;;;;13.55;8.10;;;2.70;67.10;;;;;;5035200;28;20221;-76
2021/11/23 09:54:53;;;;;;;9.05;6.97;;;2.80;67.10;;;;;;5033087;28;20271;-78
2021/11/23 09:57:20;;;;;;;9.52;7.50;;;2.90;65.90;;;;;;5018640;28;20575;-79
2021/11/23 09:59:47;;;;;;;10.52;7.82;;;2.90;65.20;;;;;;5017849;28;20225;-79
2021/11/23 10:02:25;;;;;;;9.82;7.00;;;3.00;64.20;;;;;;5017003;28;20310;-79
2021/11/23 10:05:02;;;;;;;12.07;7.45;;;3.00;63.60;;;;;;5017295;28;20211;-79
2021/11/23 10:07:37;;;;;;;8.95;6.88;;;3.10;63.40;;;;;;5015807;28;20214;-78
2021/11/23 10:10:12;;;;;;;9.02;7.07;;;3.10;63.50;;;;;;5014692;28;20261;-78
2021/11/23 10:12:39;;;;;;;7.90;6.75;;;3.10;63.80;;;;;;5020430;28;20220;-78
2021/11/23 10:15:14;;;;;;;8.88;7.68;;;3.10;63.90;;;;;;5016802;28;20205;-78
2021/11/23 10:17:45;;;;;;;9.05;7.20;;;3.10;63.90;;;;;;5016848;28;20237;-80
2021/11/23 10:20:30;;;;;;;7.97;6.82;;;3.10;64.20;;;;;;5016675;28;20237;-79
2021/11/23 10:23:08;;;;;;;9.43;6.90;;;3.20;64.30;;;;;;5017091;28;20667;-79
2021/11/23 10:25:34;;;;;;;11.60;7.85;;;3.40;63.40;;;;;;5017547;28;20294;-78
2021/11/23 10:28:02;;;;;;;10.25;7.45;;;3.40;63.00;;;;;;5015424;28;20305;-76
2021/11/23 10:30:29;;;;;;;9.32;6.65;;;3.30;62.90;;;;;;5016566;28;20562;-78
2021/11/23 10:32:56;;;;;;;10.10;7.47;;;3.40;62.90;;;;;;5018794;28;20211;-76
2021/11/23 10:35:27;;;;;;;9.35;7.07;;;3.50;63.00;;;;;;5020286;28;20214;-76
2021/11/23 10:37:55;;;;;;;8.88;6.78;;;3.50;63.10;;;;;;5031004;28;20195;-78
2021/11/23 10:40:24;;;;;;;10.00;7.55;;;3.70;61.70;;;;;;5029388;28;20237;-79
2021/11/23 10:42:53;;;;;;;7.97;6.53;;;3.70;60.90;;;;;;5030155;28;20215;-77
2021/11/23 10:45:21;;;;;;;10.25;6.68;;;3.70;61.00;;;;;;5035233;28;20211;-79
2021/11/23 10:47:50;;;;;;;7.32;6.45;;;3.80;61.00;;;;;;5036928;28;20211;-77
2021/11/23 10:50:20;;;;;;;8.05;6.55;;;3.90;60.20;;;;;;5036787;28;20223;-78
2021/11/23 10:52:51;;;;;;;8.63;6.90;;;3.80;59.70;;;;;;5034507;28;20266;-77
2021/11/23 10:55:29;;;;;;;9.25;7.00;;;3.80;59.00;;;;;;5036733;28;20208;-77
2021/11/23 10:57:59;;;;;;;8.25;6.28;;;3.90;59.00;;;;;;5037186;28;20230;-78
2021/11/23 11:00:30;;;;;;;7.75;6.22;;;3.80;58.90;;;;;;5030991;28;20327;-79
2021/11/23 11:03:01;;;;;;;9.00;6.18;;;4.00;59.10;;;;;;5024185;28;20624;-80
2021/11/23 11:05:32;;;;;;;8.40;6.68;;;4.10;58.30;;;;;;5027419;28;20639;-76
2021/11/23 11:08:00;;;;;;;10.82;6.78;;;4.20;56.90;;;;;;5023188;28;20305;-77
2021/11/23 11:10:29;;;;;;;7.38;5.95;;;4.20;56.60;;;;;;5021921;28;20400;-77
2021/11/23 11:12:56;;;;;;;7.85;6.15;;;4.30;56.30;;;;;;5024862;28;20268;-78
2021/11/23 11:15:30;;;;;;;8.02;6.10;;;4.40;55.90;;;;;;5032341;28;20211;-77
2021/11/23 11:17:58;;;;;;;8.48;6.20;;;4.40;55.50;;;;;;5035574;28;20190;-78
2021/11/23 11:20:34;;;;;;;5.93;5.32;;;4.50;54.90;;;;;;5036342;28;20235;-79
2021/11/23 11:23:07;;;;;;;9.90;5.32;;;4.50;54.90;;;;;;5033783;28;20191;-81
2021/11/23 11:26:03;;;;;;;6.93;5.32;;;4.70;53.90;;;;;;5029037;28;20203;-77
2021/11/23 11:28:44;;;;;;;6.03;5.15;;;4.60;53.30;;;;;;5023678;28;20207;-78
2021/11/23 11:31:36;;;;;;;10.65;5.47;;;4.70;53.40;;;;;;5021387;28;20235;-78
2021/11/23 11:34:30;;;;;;;6.13;5.05;;;4.80;52.80;;;;;;5021856;28;20230;-80
2021/11/23 11:37:11;;;;;;;6.43;4.90;;;4.80;52.50;;;;;;5025907;28;20199;-80
2021/11/23 11:39:53;;;;;;;7.25;5.82;;;4.90;52.50;;;;;;5028663;28;20271;-77
2021/11/23 11:42:49;;;;;;;6.53;5.68;;;5.00;52.50;;;;;;5028484;28;20207;-78
2021/11/23 11:45:17;;;;;;;5.30;4.80;;;5.10;52.80;;;;;;5028381;28;20221;-78
2021/11/23 11:47:45;;;;;;;6.95;5.35;;;5.20;51.70;;;;;;5025219;28;20208;-80
2021/11/23 11:50:33;;;;;;;5.43;4.50;;;5.20;50.80;;;;;;5022006;28;20629;-75
2021/11/23 11:53:14;;;;;;;7.40;4.85;;;5.20;50.10;;;;;;5019703;28;20208;-79
2021/11/23 11:55:53;;;;;;;7.25;4.93;;;5.20;49.70;;;;;;5029368;28;20211;-79
2021/11/23 11:58:43;;;;;;;5.70;4.70;;;5.20;49.20;;;;;;5032468;28;20215;-78
2021/11/23 12:01:28;;;;;;;6.40;4.80;;;5.30;49.60;;;;;;5030923;28;20680;-79
2021/11/23 12:04:09;;;;;;;5.75;4.25;;;5.30;49.70;;;;;;5029513;28;20234;-78
2021/11/23 12:07:19;;;;;;;5.18;4.50;;;5.30;49.10;;;;;;5029260;28;20219;-78
2021/11/23 12:09:48;;;;;;;7.15;4.93;;;5.30;49.10;;;;;;5028124;28;20358;-78
2021/11/23 12:12:53;;;;;;;5.50;4.70;;;5.40;49.60;;;;;;5023796;28;20228;-78
2021/11/23 12:16:02;;;;;;;4.93;3.80;;;5.50;49.50;;;;;;5022228;28;20211;-76
2021/11/23 12:19:02;;;;;;;7.85;4.20;;;5.50;48.00;;;;;;5018989;28;20242;-78
2021/11/23 12:21:33;;;;;;;5.38;4.70;;;5.50;48.70;;;;;;5019124;28;20703;-79
2021/11/23 12:24:02;;;;;;;5.88;4.70;;;5.60;48.20;;;;;;5020287;28;20215;-77
2021/11/23 12:26:31;;;;;;;5.30;4.55;;;5.70;47.40;;;;;;5018094;28;20261;-78
2021/11/23 12:29:01;;;;;;;5.25;4.32;;;5.70;46.80;;;;;;5015189;28;20211;-77
2021/11/23 12:31:31;;;;;;;5.15;4.70;;;5.70;46.50;;;;;;5014532;28;20238;-78
2021/11/23 12:34:01;;;;;;;5.65;4.68;;;5.70;46.50;;;;;;5014622;28;20668;-79
2021/11/23 12:36:30;;;;;;;4.82;4.32;;;5.80;46.90;;;;;;5014077;28;20246;-76
2021/11/23 12:39:09;;;;;;;6.43;4.32;;;5.80;46.60;;;;;;5018998;28;20235;-76
2021/11/23 12:41:36;;;;;;;7.57;4.38;;;5.90;46.70;;;;;;5012999;28;20227;-77
2021/11/23 12:44:17;;;;;;;4.85;3.95;;;5.90;46.70;;;;;;5013768;28;20638;-78
2021/11/23 12:46:52;;;;;;;6.07;3.55;;;5.80;46.00;;;;;;5013520;28;20227;-76
2021/11/23 12:49:18;;;;;;;6.75;4.95;;;5.80;46.40;;;;;;5012517;28;20559;-76
2021/11/23 12:51:54;;;;;;;6.03;4.60;;;5.80;46.40;;;;;;5012439;28;20227;-77
2021/11/23 12:54:26;;;;;;;5.00;3.90;;;5.80;46.60;;;;;;5013643;28;20195;-79
2021/11/23 12:57:02;;;;;;;3.88;3.45;;;5.80;46.50;;;;;;5014396;28;20219;-78
2021/11/23 12:59:37;;;;;;;10.23;4.10;;;5.90;44.90;;;;;;5022011;28;20208;-77
2021/11/23 13:02:30;;;;;;;4.45;3.20;;;5.90;45.20;;;;;;5021845;28;20237;-76
2021/11/23 13:04:59;;;;;;;4.25;3.15;;;5.90;44.20;;;;;;5018567;28;20196;-76